X  SluitMETAR luchtvaart weer gegevens      EBBR Brussels

Temperatuur

8°C Temperatuur

6°C Dauwpunt

87% Vochtigheid



Wind

14 KM/U

 9 MPH

 4 M/S

 8 KTS



220°
Zuid West
Huidig weer

Wat bewolking Wat bewolking
Luchtdruk 997.92 (hPa) - 29.47 (in)
Zicht 6.2 (mi) - 10 (km)
Vliegveld
Vliegveld code EBBR

Locatie Brussels 14 (km)

Metar:
EBBR 052050Z 22008KT 9999 FEW020 08/06 Q0998 TEMPO 4000 SHRA

Tijd: 05-06-2020 22:50